Time;durP1;ratioP1;P1;durP2;ratioP2;P2;SDS_P1;SDS_P2;PMS_P1;PMS_P2;Temp;Humidity;BMP_temperature;BMP_pressure;BME280_temperature;BME280_humidity;BME280_pressure;Samples;Min_cycle;Max_cycle;Signal;HPM_P1;HPM_P2
2023/05/09 00:00:53;;;;;;;50.73;22.87;;;;;;;;;;6322736;28;20028;-76
2023/05/09 00:03:54;;;;;;;41.20;17.83;;;;;;;;;;6345127;28;20051;-76
2023/05/09 00:06:54;;;;;;;32.17;16.37;;;;;;;;;;6330578;28;21230;-76
2023/05/09 00:09:55;;;;;;;37.93;18.93;;;;;;;;;;6322963;28;20484;-76
2023/05/09 00:12:55;;;;;;;30.50;15.00;;;;;;;;;;6326324;28;20035;-76
2023/05/09 00:15:57;;;;;;;38.27;18.97;;;;;;;;;;6334727;28;20019;-76
2023/05/09 00:18:57;;;;;;;29.08;13.50;;;;;;;;;;6323559;28;20061;-76
2023/05/09 00:21:58;;;;;;;26.43;13.17;;;;;;;;;;6320315;28;20233;-76
2023/05/09 00:24:58;;;;;;;29.65;14.07;;;;;;;;;;6307873;28;20016;-76
2023/05/09 00:27:58;;;;;;;22.93;12.63;;;;;;;;;;6314911;28;20024;-76
2023/05/09 00:30:58;;;;;;;24.33;13.93;;;;;;;;;;6333415;28;20107;-76
2023/05/09 00:33:58;;;;;;;22.97;12.13;;;;;;;;;;6314894;28;20490;-76
2023/05/09 00:36:59;;;;;;;29.60;14.30;;;;;;;;;;6334713;27;20023;-76
2023/05/09 00:39:59;;;;;;;29.00;15.60;;;;;;;;;;6323952;28;20020;-76
2023/05/09 00:42:59;;;;;;;31.07;17.37;;;;;;;;;;6332923;28;20028;-76
2023/05/09 00:46:00;;;;;;;30.37;15.27;;;;;;;;;;6319867;28;20024;-76
2023/05/09 00:49:00;;;;;;;32.80;17.27;;;;;;;;;;6322916;28;20096;-77
2023/05/09 00:52:01;;;;;;;32.87;15.70;;;;;;;;;;6310579;28;20039;-76
2023/05/09 00:55:01;;;;;;;24.60;13.20;;;;;;;;;;6335531;28;20034;-76
2023/05/09 00:58:02;;;;;;;24.73;13.63;;;;;;;;;;6320023;28;20500;-76
2023/05/09 01:01:03;;;;;;;23.23;11.67;;;;;;;;;;6331127;28;20024;-76
2023/05/09 01:04:03;;;;;;;24.93;14.03;;;;;;;;;;6322144;28;20012;-76
2023/05/09 01:07:17;;;;;;;21.80;10.80;;;;;;;;;;6329116;28;20042;-76
2023/05/09 01:10:18;;;;;;;27.40;12.52;;;;;;;;;;6336910;27;20034;-76
2023/05/09 01:13:31;;;;;;;20.45;11.95;;;;;;;;;;6319855;28;20063;-76
2023/05/09 01:16:46;;;;;;;25.38;11.85;;;;;;;;;;6339181;28;20019;-76
2023/05/09 01:19:52;;;;;;;24.02;11.45;;;;;;;;;;6324597;28;20035;-77
2023/05/09 01:23:05;;;;;;;21.70;11.63;;;;;;;;;;6328273;28;20023;-77
2023/05/09 01:26:13;;;;;;;21.63;11.55;;;;;;;;;;6326049;28;20047;-76
2023/05/09 01:29:20;;;;;;;19.63;11.90;;;;;;;;;;6329821;28;20028;-77
2023/05/09 01:32:23;;;;;;;24.27;13.18;;;;;;;;;;6324592;28;20027;-77
2023/05/09 01:35:25;;;;;;;23.08;12.75;;;;;;;;;;6331485;28;20020;-77
2023/05/09 01:38:26;;;;;;;20.00;11.75;;;;;;;;;;6322533;28;20012;-77
2023/05/09 01:41:29;;;;;;;18.83;12.13;;;;;;;;;;6325687;28;20051;-77
2023/05/09 01:44:32;;;;;;;21.23;12.27;;;;;;;;;;6324496;28;20030;-77
2023/05/09 01:47:33;;;;;;;19.42;11.27;;;;;;;;;;6335323;28;20381;-76
2023/05/09 01:50:34;;;;;;;19.70;10.77;;;;;;;;;;6346419;28;20048;-76
2023/05/09 01:53:35;;;;;;;20.55;11.75;;;;;;;;;;6338350;28;20024;-76
2023/05/09 01:56:36;;;;;;;20.03;11.43;;;;;;;;;;6329835;28;20432;-76
2023/05/09 01:59:39;;;;;;;19.83;11.75;;;;;;;;;;6325793;28;20089;-75
2023/05/09 02:02:40;;;;;;;20.70;11.88;;;;;;;;;;6339333;28;20102;-75
2023/05/09 02:05:41;;;;;;;21.63;10.40;;;;;;;;;;6335217;28;20072;-76
2023/05/09 02:08:42;;;;;;;19.75;11.88;;;;;;;;;;6336181;27;20116;-76
2023/05/09 02:11:42;;;;;;;22.47;11.77;;;;;;;;;;6334732;28;20101;-76
2023/05/09 02:14:42;;;;;;;24.60;12.53;;;;;;;;;;6337491;28;20020;-76
2023/05/09 02:17:42;;;;;;;16.40;11.00;;;;;;;;;;6330647;28;20020;-76
2023/05/09 02:20:42;;;;;;;19.57;10.77;;;;;;;;;;6326755;28;20564;-76
2023/05/09 02:23:43;;;;;;;20.97;11.90;;;;;;;;;;6339428;28;20095;-76
2023/05/09 02:26:43;;;;;;;20.10;12.63;;;;;;;;;;6332237;28;20077;-76
2023/05/09 02:29:46;;;;;;;19.27;12.30;;;;;;;;;;6333178;28;20028;-76
2023/05/09 02:32:47;;;;;;;25.10;14.27;;;;;;;;;;6330100;28;20056;-76
2023/05/09 02:35:48;;;;;;;21.58;13.10;;;;;;;;;;6332818;28;20020;-76
2023/05/09 02:38:48;;;;;;;25.00;14.77;;;;;;;;;;6330529;28;20520;-76
2023/05/09 02:41:49;;;;;;;23.87;11.93;;;;;;;;;;6327653;28;20402;-76
2023/05/09 02:44:52;;;;;;;25.00;13.37;;;;;;;;;;6347430;28;20527;-76
2023/05/09 02:47:52;;;;;;;19.55;11.75;;;;;;;;;;6343033;28;20575;-76
2023/05/09 02:50:53;;;;;;;21.23;14.07;;;;;;;;;;6339748;28;20051;-76
2023/05/09 02:53:53;;;;;;;21.63;12.90;;;;;;;;;;6329525;28;20020;-76
2023/05/09 02:56:53;;;;;;;19.47;10.37;;;;;;;;;;6329625;28;20016;-76
2023/05/09 02:59:53;;;;;;;19.25;11.95;;;;;;;;;;6333847;28;20127;-79
2023/05/09 03:02:54;;;;;;;15.27;11.68;;;;;;;;;;6329568;28;20398;-79
2023/05/09 03:05:54;;;;;;;18.50;11.20;;;;;;;;;;6316316;28;20110;-79
2023/05/09 03:08:55;;;;;;;22.08;11.35;;;;;;;;;;6335342;28;20320;-79
2023/05/09 03:11:55;;;;;;;19.90;10.63;;;;;;;;;;6337645;28;20028;-79
2023/05/09 03:14:56;;;;;;;21.37;12.60;;;;;;;;;;6327823;28;20020;-79
2023/05/09 03:17:56;;;;;;;31.58;16.38;;;;;;;;;;6334152;27;20095;-79
2023/05/09 03:20:56;;;;;;;25.03;13.93;;;;;;;;;;6341311;28;20019;-79
2023/05/09 03:23:56;;;;;;;18.90;12.20;;;;;;;;;;6336027;28;20031;-79
2023/05/09 03:26:56;;;;;;;22.20;12.93;;;;;;;;;;6328627;28;20023;-79
2023/05/09 03:29:57;;;;;;;21.20;11.00;;;;;;;;;;6322692;28;20082;-79
2023/05/09 03:32:57;;;;;;;26.73;15.47;;;;;;;;;;6332915;28;20020;-79
2023/05/09 03:35:57;;;;;;;32.73;16.13;;;;;;;;;;6330933;28;20021;-79
2023/05/09 03:38:58;;;;;;;23.50;13.37;;;;;;;;;;6325709;28;20007;-80
2023/05/09 03:41:58;;;;;;;21.58;13.35;;;;;;;;;;6332218;28;20048;-79
2023/05/09 03:44:58;;;;;;;18.73;11.30;;;;;;;;;;6330199;28;20024;-79
2023/05/09 03:48:00;;;;;;;22.13;12.97;;;;;;;;;;6328835;28;20024;-79
2023/05/09 03:51:01;;;;;;;22.13;12.77;;;;;;;;;;6324363;28;20127;-80
2023/05/09 03:54:01;;;;;;;23.50;13.65;;;;;;;;;;6305321;28;20073;-79
2023/05/09 03:57:02;;;;;;;21.57;13.53;;;;;;;;;;6339716;28;20008;-80
2023/05/09 04:00:04;;;;;;;21.80;14.20;;;;;;;;;;6332063;28;20018;-79
2023/05/09 04:03:05;;;;;;;23.70;14.63;;;;;;;;;;6320029;28;20048;-79
2023/05/09 04:06:05;;;;;;;24.53;14.27;;;;;;;;;;6345228;28;20458;-80
2023/05/09 04:09:05;;;;;;;21.58;12.15;;;;;;;;;;6335717;28;20016;-79
2023/05/09 04:12:06;;;;;;;20.25;12.18;;;;;;;;;;6337897;28;20458;-80
2023/05/09 04:15:06;;;;;;;15.50;10.20;;;;;;;;;;6324558;28;20023;-80
2023/05/09 04:18:07;;;;;;;19.70;13.03;;;;;;;;;;6326138;28;20094;-79
2023/05/09 04:21:08;;;;;;;21.83;11.63;;;;;;;;;;6330305;28;20528;-79
2023/05/09 04:24:08;;;;;;;19.75;12.20;;;;;;;;;;6340451;28;20258;-79
2023/05/09 04:27:08;;;;;;;22.50;11.30;;;;;;;;;;6308864;28;20533;-79
2023/05/09 04:30:10;;;;;;;18.57;11.57;;;;;;;;;;6322116;28;20099;-80
2023/05/09 04:33:10;;;;;;;22.52;11.48;;;;;;;;;;6333247;28;20277;-81
2023/05/09 04:36:11;;;;;;;21.85;12.60;;;;;;;;;;6324330;28;20027;-81
2023/05/09 04:39:11;;;;;;;17.83;11.13;;;;;;;;;;6326419;28;20397;-81
2023/05/09 04:42:11;;;;;;;15.43;10.13;;;;;;;;;;6336538;28;20012;-81
2023/05/09 04:45:12;;;;;;;19.47;11.27;;;;;;;;;;6335395;28;20020;-81
2023/05/09 04:48:12;;;;;;;22.05;12.35;;;;;;;;;;6335315;28;20011;-80
2023/05/09 04:51:12;;;;;;;25.27;12.27;;;;;;;;;;6337568;28;20024;-81
2023/05/09 04:54:12;;;;;;;19.27;11.82;;;;;;;;;;6342131;28;20019;-80
2023/05/09 04:57:13;;;;;;;18.93;10.70;;;;;;;;;;6325378;28;20785;-81
2023/05/09 05:00:14;;;;;;;18.83;10.97;;;;;;;;;;6331281;28;20069;-81
2023/05/09 05:03:16;;;;;;;16.33;9.68;;;;;;;;;;6335708;28;20028;-80
2023/05/09 05:06:16;;;;;;;;;;;;;;;;;;6333265;28;20015;-79
2023/05/09 05:09:17;;;;;;;15.38;9.35;;;;;;;;;;6333747;28;19904;-82
2023/05/09 05:12:17;;;;;;;16.23;9.00;;;;;;;;;;6336713;28;20511;-79
2023/05/09 05:15:18;;;;;;;18.23;8.43;;;;;;;;;;6336680;28;20008;-79
2023/05/09 05:18:18;;;;;;;16.90;8.38;;;;;;;;;;6322695;28;20012;-79
2023/05/09 05:21:18;;;;;;;14.33;8.40;;;;;;;;;;6332283;28;20131;-73
2023/05/09 05:24:18;;;;;;;15.77;8.37;;;;;;;;;;6324237;28;20032;-74
2023/05/09 05:27:19;;;;;;;16.53;7.77;;;;;;;;;;6308401;28;20031;-74
2023/05/09 05:30:19;;;;;;;13.37;7.00;;;;;;;;;;6314903;28;20421;-74
2023/05/09 05:33:20;;;;;;;10.60;6.80;;;;;;;;;;6328104;28;20031;-74
2023/05/09 05:36:20;;;;;;;12.63;6.10;;;;;;;;;;6326477;28;20042;-74
2023/05/09 05:39:20;;;;;;;12.13;6.40;;;;;;;;;;6318659;28;20134;-74
2023/05/09 05:42:20;;;;;;;12.97;6.63;;;;;;;;;;6324720;28;20119;-73
2023/05/09 05:45:20;;;;;;;10.80;6.10;;;;;;;;;;6328410;28;20020;-74
2023/05/09 05:48:21;;;;;;;10.60;7.63;;;;;;;;;;6323781;28;20493;-73
2023/05/09 05:51:21;;;;;;;11.90;6.80;;;;;;;;;;6309018;28;20012;-74
2023/05/09 05:54:21;;;;;;;11.30;7.13;;;;;;;;;;6330129;28;20015;-73
2023/05/09 05:57:21;;;;;;;13.27;6.80;;;;;;;;;;6328486;28;20016;-74
2023/05/09 06:00:21;;;;;;;14.35;5.65;;;;;;;;;;6331501;28;20008;-73
2023/05/09 06:03:22;;;;;;;9.03;5.37;;;;;;;;;;6305833;28;20449;-74
2023/05/09 06:06:22;;;;;;;10.53;6.40;;;;;;;;;;6326994;28;20070;-74
2023/05/09 06:09:22;;;;;;;11.60;4.67;;;;;;;;;;6326556;28;20019;-74
2023/05/09 06:12:22;;;;;;;11.77;5.17;;;;;;;;;;6334802;28;20122;-73
2023/05/09 06:15:22;;;;;;;11.20;5.65;;;;;;;;;;6334586;28;20016;-73
2023/05/09 06:18:23;;;;;;;12.13;5.30;;;;;;;;;;6332041;28;20011;-74
2023/05/09 06:21:23;;;;;;;14.73;5.23;;;;;;;;;;6342122;28;20102;-73
2023/05/09 06:24:23;;;;;;;8.97;5.40;;;;;;;;;;6319678;28;20098;-73
2023/05/09 06:27:24;;;;;;;12.83;6.23;;;;;;;;;;6325547;28;20162;-73
2023/05/09 06:30:24;;;;;;;9.07;6.10;;;;;;;;;;6338943;28;20428;-79
2023/05/09 06:33:24;;;;;;;8.87;5.50;;;;;;;;;;6327993;28;20020;-78
2023/05/09 06:36:25;;;;;;;9.95;5.50;;;;;;;;;;6336460;28;20070;-78
2023/05/09 06:39:25;;;;;;;10.37;5.30;;;;;;;;;;6325462;28;20386;-79
2023/05/09 06:42:25;;;;;;;10.03;5.13;;;;;;;;;;6314587;28;20016;-78
2023/05/09 06:45:26;;;;;;;11.73;5.07;;;;;;;;;;6327968;28;20020;-78
2023/05/09 06:48:26;;;;;;;8.00;5.07;;;;;;;;;;6328724;28;20487;-79
2023/05/09 06:51:26;;;;;;;9.18;4.85;;;;;;;;;;6333494;28;20058;-79
2023/05/09 06:54:26;;;;;;;14.93;5.40;;;;;;;;;;6310208;28;20514;-79
2023/05/09 06:57:27;;;;;;;12.50;5.17;;;;;;;;;;6335816;28;20011;-80
2023/05/09 07:00:27;;;;;;;12.97;4.43;;;;;;;;;;6331620;28;20452;-78
2023/05/09 07:03:27;;;;;;;10.85;6.00;;;;;;;;;;6337740;28;20019;-79
2023/05/09 07:06:27;;;;;;;10.13;5.60;;;;;;;;;;6323749;28;20020;-79
2023/05/09 07:09:27;;;;;;;10.60;5.43;;;;;;;;;;6339419;28;20027;-78
2023/05/09 07:12:29;;;;;;;10.57;4.37;;;;;;;;;;6333302;28;20544;-78
2023/05/09 07:15:29;;;;;;;11.77;4.78;;;;;;;;;;6335103;28;20015;-79
2023/05/09 07:18:30;;;;;;;10.17;4.23;;;;;;;;;;6328019;28;20020;-78
2023/05/09 07:21:33;;;;;;;7.03;4.40;;;;;;;;;;6310448;28;20046;-78
2023/05/09 07:24:33;;;;;;;9.32;4.88;;;;;;;;;;6343095;28;20028;-78
2023/05/09 07:27:34;;;;;;;9.33;4.33;;;;;;;;;;6324688;28;20020;-79
2023/05/09 07:30:34;;;;;;;13.32;5.20;;;;;;;;;;6326662;28;20485;-78
2023/05/09 07:33:34;;;;;;;4.90;3.87;;;;;;;;;;6336960;28;20121;-78
2023/05/09 07:36:36;;;;;;;10.00;4.90;;;;;;;;;;6332862;28;20073;-78
2023/05/09 07:39:36;;;;;;;10.18;5.47;;;;;;;;;;6337401;28;20454;-74
2023/05/09 07:42:37;;;;;;;11.13;4.90;;;;;;;;;;6338611;28;20015;-74
2023/05/09 07:45:37;;;;;;;7.70;4.47;;;;;;;;;;6334971;28;20091;-74
2023/05/09 07:48:38;;;;;;;5.20;3.53;;;;;;;;;;6323692;28;20048;-73
2023/05/09 07:51:38;;;;;;;6.17;3.97;;;;;;;;;;6322392;28;20512;-74
2023/05/09 07:54:38;;;;;;;10.20;4.30;;;;;;;;;;6321896;28;20000;-74
2023/05/09 07:57:38;;;;;;;9.52;3.88;;;;;;;;;;6306771;28;20481;-74
2023/05/09 08:00:39;;;;;;;13.03;4.40;;;;;;;;;;6345184;28;20004;-74
2023/05/09 08:03:40;;;;;;;7.68;3.60;;;;;;;;;;6324834;28;20023;-74
2023/05/09 08:06:40;;;;;;;6.33;3.33;;;;;;;;;;6332209;27;20023;-75
2023/05/09 08:09:40;;;;;;;9.13;4.27;;;;;;;;;;6325963;28;20424;-74
2023/05/09 08:12:40;;;;;;;8.03;4.37;;;;;;;;;;6304843;28;20344;-74
2023/05/09 08:15:41;;;;;;;12.23;3.40;;;;;;;;;;6320792;28;20047;-73
2023/05/09 08:18:41;;;;;;;9.87;4.50;;;;;;;;;;6335077;28;20107;-74
2023/05/09 08:21:41;;;;;;;8.50;4.10;;;;;;;;;;6334810;28;20080;-74
2023/05/09 08:24:41;;;;;;;7.55;3.95;;;;;;;;;;6334848;28;20032;-75
2023/05/09 08:27:41;;;;;;;8.05;4.20;;;;;;;;;;6322643;28;20048;-75
2023/05/09 08:30:42;;;;;;;9.10;3.80;;;;;;;;;;6328872;28;20070;-74
2023/05/09 08:33:42;;;;;;;11.83;5.00;;;;;;;;;;6310068;28;20012;-75
2023/05/09 08:36:44;;;;;;;8.02;4.10;;;;;;;;;;6336955;28;20023;-75
2023/05/09 08:39:44;;;;;;;8.35;3.92;;;;;;;;;;6331068;28;20020;-74
2023/05/09 08:42:45;;;;;;;8.83;4.33;;;;;;;;;;6339626;28;20107;-74
2023/05/09 08:45:53;;;;;;;9.90;4.32;;;;;;;;;;6327240;28;20484;-74
2023/05/09 08:48:55;;;;;;;8.23;4.50;;;;;;;;;;6327828;27;20506;-74
2023/05/09 08:51:56;;;;;;;6.68;4.03;;;;;;;;;;6322461;28;20024;-78
2023/05/09 08:54:56;;;;;;;6.45;3.67;;;;;;;;;;6337560;28;20039;-79
2023/05/09 08:57:57;;;;;;;6.50;4.23;;;;;;;;;;6329350;28;20481;-78
2023/05/09 09:00:57;;;;;;;8.80;4.13;;;;;;;;;;6331527;28;20063;-78
2023/05/09 09:03:59;;;;;;;7.03;4.27;;;;;;;;;;6341490;28;20033;-78
2023/05/09 09:06:59;;;;;;;7.68;4.07;;;;;;;;;;6330226;28;20024;-78
2023/05/09 09:10:01;;;;;;;10.97;4.80;;;;;;;;;;6333296;28;20054;-78
2023/05/09 09:13:03;;;;;;;8.80;5.13;;;;;;;;;;6310632;28;20027;-78
2023/05/09 09:16:04;;;;;;;12.85;5.32;;;;;;;;;;6322326;28;20016;-78
2023/05/09 09:19:06;;;;;;;8.68;4.15;;;;;;;;;;6328403;28;20043;-78
2023/05/09 09:22:07;;;;;;;8.88;4.90;;;;;;;;;;6318150;28;20025;-78
2023/05/09 09:25:08;;;;;;;10.80;5.38;;;;;;;;;;6336132;28;20019;-78
2023/05/09 09:28:09;;;;;;;7.97;4.33;;;;;;;;;;6328699;28;20098;-78
2023/05/09 09:31:19;;;;;;;9.15;4.57;;;;;;;;;;6321661;28;20027;-79
2023/05/09 09:34:20;;;;;;;7.75;4.15;;;;;;;;;;6325946;28;20023;-78
2023/05/09 09:37:22;;;;;;;11.05;5.32;;;;;;;;;;6311060;28;20016;-78
2023/05/09 09:40:23;;;;;;;7.65;4.30;;;;;;;;;;6322484;28;20040;-78
2023/05/09 09:43:29;;;;;;;8.57;4.53;;;;;;;;;;6332254;28;20039;-79
2023/05/09 09:46:39;;;;;;;7.38;3.95;;;;;;;;;;6325838;28;20251;-79
2023/05/09 09:49:43;;;;;;;5.65;3.58;;;;;;;;;;6321852;28;20623;-78
2023/05/09 09:52:51;;;;;;;8.55;4.35;;;;;;;;;;6323472;28;20378;-78
2023/05/09 09:55:52;;;;;;;7.60;3.75;;;;;;;;;;6320995;28;20044;-77
2023/05/09 09:59:06;;;;;;;7.57;4.27;;;;;;;;;;6332899;28;20024;-78
2023/05/09 10:02:07;;;;;;;9.20;3.53;;;;;;;;;;6332956;28;20496;-78
2023/05/09 10:05:08;;;;;;;7.90;3.43;;;;;;;;;;6333348;28;20051;-78
2023/05/09 10:08:08;;;;;;;11.57;4.23;;;;;;;;;;6338359;28;20420;-78
2023/05/09 10:11:08;;;;;;;6.87;3.77;;;;;;;;;;6336477;28;20070;-75
2023/05/09 10:14:09;;;;;;;4.80;3.00;;;;;;;;;;6327522;28;20043;-75
2023/05/09 10:17:12;;;;;;;9.60;3.37;;;;;;;;;;6344789;28;20019;-75
2023/05/09 10:20:12;;;;;;;6.38;3.17;;;;;;;;;;6332992;28;20111;-75
2023/05/09 10:23:13;;;;;;;7.07;2.93;;;;;;;;;;6332284;28;20016;-74
2023/05/09 10:26:21;;;;;;;6.70;3.65;;;;;;;;;;6341080;28;20504;-75
2023/05/09 10:29:23;;;;;;;7.93;2.95;;;;;;;;;;6331173;28;20024;-75
2023/05/09 10:32:30;;;;;;;8.55;3.60;;;;;;;;;;6331125;28;20031;-75
2023/05/09 10:35:32;;;;;;;8.38;4.05;;;;;;;;;;6329994;28;20016;-75
2023/05/09 10:38:33;;;;;;;5.75;3.10;;;;;;;;;;6335958;28;20022;-75
2023/05/09 10:41:35;;;;;;;5.43;3.30;;;;;;;;;;6336619;28;20103;-75
2023/05/09 10:44:36;;;;;;;6.35;3.63;;;;;;;;;;6338582;28;20059;-76
2023/05/09 10:47:37;;;;;;;7.10;3.33;;;;;;;;;;6309259;28;20028;-75
2023/05/09 10:50:39;;;;;;;5.78;2.80;;;;;;;;;;6326892;28;20050;-75
2023/05/09 10:53:49;;;;;;;12.68;3.67;;;;;;;;;;6340613;28;20517;-75
2023/05/09 10:56:50;;;;;;;4.35;2.88;;;;;;;;;;6326717;28;20047;-75
2023/05/09 10:59:50;;;;;;;5.53;3.05;;;;;;;;;;6335631;28;20069;-78
2023/05/09 11:03:09;;;;;;;4.93;2.80;;;;;;;;;;6317567;28;20046;-78
2023/05/09 11:06:09;;;;;;;8.00;2.72;;;;;;;;;;6332587;28;20485;-78
2023/05/09 11:09:31;;;;;;;6.57;3.35;;;;;;;;;;6338791;28;20035;-79
2023/05/09 11:12:31;;;;;;;6.13;2.90;;;;;;;;;;6327692;28;20037;-78
2023/05/09 11:15:32;;;;;;;7.40;2.90;;;;;;;;;;6340141;28;20016;-79
2023/05/09 11:18:32;;;;;;;5.03;2.80;;;;;;;;;;6342659;28;20077;-78
2023/05/09 11:21:34;;;;;;;4.53;3.07;;;;;;;;;;6325675;28;20414;-79
2023/05/09 11:24:36;;;;;;;8.98;4.30;;;;;;;;;;6328972;28;20016;-78
2023/05/09 11:27:42;;;;;;;6.78;3.17;;;;;;;;;;6330977;28;20023;-78
2023/05/09 11:30:42;;;;;;;8.10;3.42;;;;;;;;;;6331814;28;20584;-79
2023/05/09 11:33:45;;;;;;;6.67;2.90;;;;;;;;;;6337275;28;20030;-79
2023/05/09 11:36:46;;;;;;;5.18;2.40;;;;;;;;;;6316518;28;20076;-78
2023/05/09 11:40:00;;;;;;;3.75;2.58;;;;;;;;;;6335086;28;20012;-78
2023/05/09 11:43:00;;;;;;;7.05;2.97;;;;;;;;;;6306589;28;20460;-78
2023/05/09 11:46:01;;;;;;;8.63;2.77;;;;;;;;;;6324844;28;20026;-79
2023/05/09 11:49:05;;;;;;;8.43;3.58;;;;;;;;;;6333455;27;20300;-79
2023/05/09 11:52:05;;;;;;;7.47;3.40;;;;;;;;;;6331076;27;20063;-78
2023/05/09 11:55:10;;;;;;;5.35;2.95;;;;;;;;;;6334623;28;20406;-80
2023/05/09 11:58:10;;;;;;;5.78;2.88;;;;;;;;;;6337047;28;20012;-79
2023/05/09 12:01:11;;;;;;;8.60;2.90;;;;;;;;;;6342813;28;20026;-79
2023/05/09 12:04:11;;;;;;;7.95;3.20;;;;;;;;;;6335466;27;20118;-79
2023/05/09 12:07:12;;;;;;;5.20;3.03;;;;;;;;;;6340535;27;20468;-78
2023/05/09 12:10:13;;;;;;;5.17;2.77;;;;;;;;;;6333665;28;20016;-75
2023/05/09 12:13:14;;;;;;;8.57;5.15;;;;;;;;;;6341110;28;20027;-75
2023/05/09 12:16:14;;;;;;;5.13;2.73;;;;;;;;;;6332334;28;20011;-75
2023/05/09 12:19:17;;;;;;;5.25;2.72;;;;;;;;;;6338140;28;20023;-75
2023/05/09 12:22:17;;;;;;;4.88;2.50;;;;;;;;;;6340536;28;20458;-76
2023/05/09 12:25:17;;;;;;;4.43;2.38;;;;;;;;;;6320850;28;20016;-75
2023/05/09 12:28:18;;;;;;;4.40;2.60;;;;;;;;;;6326750;28;20500;-75
2023/05/09 12:31:19;;;;;;;3.35;2.28;;;;;;;;;;6332561;28;20011;-75
2023/05/09 12:34:19;;;;;;;4.43;2.57;;;;;;;;;;6326704;28;20015;-75
2023/05/09 12:37:20;;;;;;;4.30;2.83;;;;;;;;;;6332423;28;20011;-76
2023/05/09 12:40:20;;;;;;;6.60;2.97;;;;;;;;;;6312484;28;21586;-78
2023/05/09 12:43:21;;;;;;;3.47;2.37;;;;;;;;;;6337985;28;20553;-78
2023/05/09 12:46:24;;;;;;;6.00;2.40;;;;;;;;;;6338044;28;20404;-79
2023/05/09 12:49:24;;;;;;;3.80;2.22;;;;;;;;;;6331969;28;20047;-78
2023/05/09 12:52:25;;;;;;;4.83;2.40;;;;;;;;;;6325959;28;20496;-78
2023/05/09 12:55:26;;;;;;;6.90;3.57;;;;;;;;;;6328713;28;20035;-78
2023/05/09 12:58:30;;;;;;;8.98;2.78;;;;;;;;;;6322156;28;20352;-78
2023/05/09 13:01:31;;;;;;;3.90;2.25;;;;;;;;;;6316811;28;20019;-78
2023/05/09 13:04:31;;;;;;;6.53;2.43;;;;;;;;;;6329703;28;20111;-79
2023/05/09 13:07:44;;;;;;;8.67;3.80;;;;;;;;;;6330671;28;20123;-79
2023/05/09 13:10:45;;;;;;;5.20;2.90;;;;;;;;;;6322445;28;20058;-79
2023/05/09 13:13:45;;;;;;;8.73;2.93;;;;;;;;;;6325982;28;20024;-79
2023/05/09 13:16:46;;;;;;;3.73;2.37;;;;;;;;;;6318491;28;20020;-78
2023/05/09 13:19:46;;;;;;;4.50;2.40;;;;;;;;;;6328491;28;20489;-74
2023/05/09 13:22:46;;;;;;;8.90;2.60;;;;;;;;;;6340113;28;20362;-75
2023/05/09 13:25:46;;;;;;;4.60;2.43;;;;;;;;;;6328480;28;20035;-76
2023/05/09 13:28:47;;;;;;;4.97;2.47;;;;;;;;;;6312306;28;20483;-76
2023/05/09 13:31:47;;;;;;;3.70;2.30;;;;;;;;;;6328027;28;20439;-76
2023/05/09 13:34:47;;;;;;;4.70;2.67;;;;;;;;;;6328558;28;20027;-76
2023/05/09 13:37:47;;;;;;;5.77;2.40;;;;;;;;;;6315965;28;20028;-76
2023/05/09 13:40:48;;;;;;;7.00;2.50;;;;;;;;;;6313835;28;20051;-76
2023/05/09 13:43:48;;;;;;;6.10;2.67;;;;;;;;;;6336458;28;20047;-76
2023/05/09 13:46:48;;;;;;;5.47;2.37;;;;;;;;;;6331917;27;20036;-76
2023/05/09 13:49:49;;;;;;;5.17;2.20;;;;;;;;;;6348890;27;20122;-76
2023/05/09 13:52:49;;;;;;;4.33;2.33;;;;;;;;;;6328025;28;20069;-76
2023/05/09 13:55:49;;;;;;;3.20;2.53;;;;;;;;;;6335953;28;20016;-75
2023/05/09 13:58:50;;;;;;;11.13;2.85;;;;;;;;;;6337484;28;20102;-76
2023/05/09 14:01:50;;;;;;;4.97;2.50;;;;;;;;;;6341090;28;20118;-76
2023/05/09 14:04:50;;;;;;;5.87;2.90;;;;;;;;;;6328361;28;20020;-76
2023/05/09 14:07:51;;;;;;;8.57;4.03;;;;;;;;;;6341288;28;20806;-76
2023/05/09 14:10:51;;;;;;;4.53;2.80;;;;;;;;;;6316107;28;20027;-76
2023/05/09 14:13:51;;;;;;;8.83;3.20;;;;;;;;;;6321935;28;20020;-76
2023/05/09 14:16:52;;;;;;;3.97;2.40;;;;;;;;;;6332519;28;20612;-76
2023/05/09 14:19:53;;;;;;;3.85;2.05;;;;;;;;;;6332272;28;20032;-75
2023/05/09 14:22:54;;;;;;;11.00;6.73;;;;;;;;;;6343775;28;20111;-75
2023/05/09 14:25:54;;;;;;;4.47;2.35;;;;;;;;;;6329430;28;20043;-75
2023/05/09 14:28:54;;;;;;;5.27;2.87;;;;;;;;;;6326567;28;20027;-76
2023/05/09 14:31:54;;;;;;;4.07;2.70;;;;;;;;;;6329121;28;20019;-79
2023/05/09 14:34:55;;;;;;;3.53;2.30;;;;;;;;;;6314805;28;20028;-79
2023/05/09 14:37:55;;;;;;;2.23;1.97;;;;;;;;;;6329523;28;20388;-79
2023/05/09 14:40:55;;;;;;;4.23;1.90;;;;;;;;;;6327500;28;20024;-79
2023/05/09 14:43:56;;;;;;;2.67;2.33;;;;;;;;;;6327596;28;20401;-79
2023/05/09 14:46:56;;;;;;;12.27;5.73;;;;;;;;;;6334848;28;20032;-79
2023/05/09 14:49:56;;;;;;;3.70;2.42;;;;;;;;;;6295013;28;20132;-79
2023/05/09 14:52:58;;;;;;;3.30;1.67;;;;;;;;;;6309228;28;20078;-79
2023/05/09 14:55:58;;;;;;;6.78;2.97;;;;;;;;;;6299542;28;20008;-75
2023/05/09 14:58:58;;;;;;;4.70;2.53;;;;;;;;;;6312786;28;20028;-75
2023/05/09 15:01:59;;;;;;;3.03;2.10;;;;;;;;;;6317618;28;20019;-75
2023/05/09 15:04:59;;;;;;;8.50;2.77;;;;;;;;;;6310392;28;20538;-76
2023/05/09 15:07:59;;;;;;;5.87;2.13;;;;;;;;;;6282673;28;20094;-76
2023/05/09 15:11:00;;;;;;;4.10;2.13;;;;;;;;;;6314262;28;20054;-75
2023/05/09 15:14:00;;;;;;;5.35;1.85;;;;;;;;;;6313460;28;20050;-76
2023/05/09 15:17:02;;;;;;;6.43;2.30;;;;;;;;;;6321131;28;20047;-76
2023/05/09 15:20:03;;;;;;;5.38;3.25;;;;;;;;;;6297503;28;20035;-76
2023/05/09 15:23:05;;;;;;;4.90;2.33;;;;;;;;;;6301246;28;20075;-76
2023/05/09 15:26:12;;;;;;;7.28;3.40;;;;;;;;;;6306545;28;20024;-76
2023/05/09 15:29:12;;;;;;;2.58;2.30;;;;;;;;;;6311435;28;20040;-76
2023/05/09 15:32:13;;;;;;;5.27;1.90;;;;;;;;;;6311323;28;20028;-76
2023/05/09 15:35:14;;;;;;;6.63;2.40;;;;;;;;;;6293600;28;20465;-76
2023/05/09 15:38:16;;;;;;;3.80;1.95;;;;;;;;;;6298429;28;20031;-76
2023/05/09 15:41:17;;;;;;;4.47;2.22;;;;;;;;;;6297344;28;20350;-75
2023/05/09 15:44:17;;;;;;;4.10;1.80;;;;;;;;;;6303878;28;20012;-76
2023/05/09 15:47:17;;;;;;;3.30;2.30;;;;;;;;;;6315864;28;20023;-76
2023/05/09 15:50:18;;;;;;;3.67;1.97;;;;;;;;;;6308067;28;20036;-75
2023/05/09 15:53:18;;;;;;;3.63;2.00;;;;;;;;;;6313203;28;20044;-75
2023/05/09 15:56:18;;;;;;;8.00;3.20;;;;;;;;;;6301337;28;20020;-76
2023/05/09 15:59:18;;;;;;;6.93;2.80;;;;;;;;;;6302743;28;20593;-76
2023/05/09 16:02:19;;;;;;;3.33;2.30;;;;;;;;;;6311771;28;20017;-76
2023/05/09 16:05:19;;;;;;;3.43;2.33;;;;;;;;;;6279477;28;20414;-76
2023/05/09 16:08:19;;;;;;;4.47;2.50;;;;;;;;;;6313524;28;20062;-76
2023/05/09 16:11:20;;;;;;;6.10;2.53;;;;;;;;;;6304789;28;20032;-76
2023/05/09 16:14:20;;;;;;;6.97;2.33;;;;;;;;;;6306613;28;20016;-75
2023/05/09 16:17:20;;;;;;;3.63;2.47;;;;;;;;;;6317952;28;20012;-76
2023/05/09 16:20:21;;;;;;;4.67;2.60;;;;;;;;;;6308403;28;20119;-76
2023/05/09 16:23:22;;;;;;;6.50;2.00;;;;;;;;;;6303411;28;20036;-75
2023/05/09 16:26:22;;;;;;;5.87;3.00;;;;;;;;;;6314019;28;20059;-75
2023/05/09 16:29:22;;;;;;;3.87;2.30;;;;;;;;;;6295432;28;20614;-75
2023/05/09 16:32:22;;;;;;;5.50;2.03;;;;;;;;;;6305597;28;20020;-75
2023/05/09 16:35:23;;;;;;;6.27;2.70;;;;;;;;;;6319406;28;20042;-75
2023/05/09 16:38:23;;;;;;;4.13;2.58;;;;;;;;;;6317743;28;20027;-76
2023/05/09 16:41:23;;;;;;;5.50;2.43;;;;;;;;;;6316008;28;20043;-76
2023/05/09 16:44:24;;;;;;;12.15;2.75;;;;;;;;;;6311787;28;20385;-75
2023/05/09 16:47:24;;;;;;;11.20;2.77;;;;;;;;;;6313032;28;20012;-76
2023/05/09 16:50:24;;;;;;;3.03;2.17;;;;;;;;;;6302567;28;20037;-75
2023/05/09 16:53:25;;;;;;;7.37;3.00;;;;;;;;;;6299830;28;20067;-76
2023/05/09 16:56:27;;;;;;;5.20;2.13;;;;;;;;;;6317703;28;20548;-76
2023/05/09 16:59:27;;;;;;;6.53;3.40;;;;;;;;;;6318054;28;20012;-76
2023/05/09 17:02:29;;;;;;;4.63;2.87;;;;;;;;;;6304873;28;20458;-76
2023/05/09 17:05:29;;;;;;;5.13;3.08;;;;;;;;;;6297770;28;20027;-76
2023/05/09 17:08:29;;;;;;;5.40;2.60;;;;;;;;;;6305557;28;20477;-76
2023/05/09 17:11:29;;;;;;;6.38;2.20;;;;;;;;;;6295566;28;20028;-76
2023/05/09 17:14:29;;;;;;;7.83;2.60;;;;;;;;;;6317825;28;20134;-76
2023/05/09 17:17:30;;;;;;;7.00;2.90;;;;;;;;;;6299880;28;20020;-76
2023/05/09 17:20:30;;;;;;;7.87;2.37;;;;;;;;;;6303890;28;20020;-76
2023/05/09 17:23:32;;;;;;;5.60;2.50;;;;;;;;;;6294450;28;20028;-76
2023/05/09 17:26:32;;;;;;;4.82;2.30;;;;;;;;;;6307708;28;20054;-76
2023/05/09 17:29:32;;;;;;;5.80;2.73;;;;;;;;;;6299651;28;20032;-76
2023/05/09 17:32:32;;;;;;;5.63;2.40;;;;;;;;;;6282152;28;20090;-76
2023/05/09 17:35:33;;;;;;;4.80;2.30;;;;;;;;;;6304644;28;20067;-76
2023/05/09 17:38:33;;;;;;;2.83;2.60;;;;;;;;;;6310262;28;20420;-76
2023/05/09 17:41:33;;;;;;;8.53;3.00;;;;;;;;;;6303717;28;20011;-76
2023/05/09 17:44:34;;;;;;;4.90;2.60;;;;;;;;;;6301752;28;20485;-76
2023/05/09 17:47:34;;;;;;;8.43;3.20;;;;;;;;;;6306941;28;20013;-76
2023/05/09 17:50:34;;;;;;;6.23;3.63;;;;;;;;;;6310216;28;20086;-76
2023/05/09 17:53:34;;;;;;;5.23;3.30;;;;;;;;;;6308194;28;20822;-76